sensor_id;sensor_type;location;lat;lon;timestamp;P1;durP1;ratioP1;P2;durP2;ratioP2
20653;SDS011;21083;50.898;4.902;2023-04-01T00:01:01;7.05;;;1.42;;
20653;SDS011;21083;50.898;4.902;2023-04-01T00:03:31;5.50;;;1.02;;
20653;SDS011;21083;50.898;4.902;2023-04-01T00:05:59;6.45;;;0.80;;
20653;SDS011;21083;50.898;4.902;2023-04-01T00:08:27;3.78;;;0.85;;
20653;SDS011;21083;50.898;4.902;2023-04-01T00:10:55;8.95;;;1.48;;
20653;SDS011;21083;50.898;4.902;2023-04-01T00:13:23;7.30;;;1.20;;
20653;SDS011;21083;50.898;4.902;2023-04-01T00:15:51;7.47;;;1.20;;
20653;SDS011;21083;50.898;4.902;2023-04-01T00:18:19;5.05;;;1.15;;
20653;SDS011;21083;50.898;4.902;2023-04-01T00:20:47;5.47;;;0.90;;
20653;SDS011;21083;50.898;4.902;2023-04-01T00:23:17;7.30;;;1.00;;
20653;SDS011;21083;50.898;4.902;2023-04-01T00:25:45;7.57;;;1.00;;
20653;SDS011;21083;50.898;4.902;2023-04-01T00:28:13;10.30;;;1.20;;
20653;SDS011;21083;50.898;4.902;2023-04-01T00:30:40;5.65;;;1.05;;
20653;SDS011;21083;50.898;4.902;2023-04-01T00:33:07;8.50;;;1.33;;
20653;SDS011;21083;50.898;4.902;2023-04-01T00:35:35;6.30;;;1.55;;
20653;SDS011;21083;50.898;4.902;2023-04-01T00:38:03;4.57;;;0.88;;
20653;SDS011;21083;50.898;4.902;2023-04-01T00:40:32;4.45;;;1.15;;
20653;SDS011;21083;50.898;4.902;2023-04-01T00:43:01;8.73;;;1.30;;
20653;SDS011;21083;50.898;4.902;2023-04-01T00:45:35;5.35;;;1.02;;
20653;SDS011;21083;50.898;4.902;2023-04-01T00:48:04;8.30;;;1.30;;
20653;SDS011;21083;50.898;4.902;2023-04-01T00:50:35;8.63;;;0.90;;
20653;SDS011;21083;50.898;4.902;2023-04-01T00:53:06;7.75;;;0.85;;
20653;SDS011;21083;50.898;4.902;2023-04-01T00:55:35;6.53;;;1.10;;
20653;SDS011;21083;50.898;4.902;2023-04-01T00:58:06;6.70;;;1.17;;
20653;SDS011;21083;50.898;4.902;2023-04-01T01:00:37;5.88;;;1.05;;
20653;SDS011;21083;50.898;4.902;2023-04-01T01:03:04;3.33;;;0.98;;
20653;SDS011;21083;50.898;4.902;2023-04-01T01:05:35;5.93;;;1.00;;
20653;SDS011;21083;50.898;4.902;2023-04-01T01:08:12;5.60;;;1.00;;
20653;SDS011;21083;50.898;4.902;2023-04-01T01:10:49;6.70;;;1.17;;
20653;SDS011;21083;50.898;4.902;2023-04-01T01:13:17;4.03;;;0.85;;
20653;SDS011;21083;50.898;4.902;2023-04-01T01:15:49;7.25;;;1.08;;
20653;SDS011;21083;50.898;4.902;2023-04-01T01:18:23;4.38;;;0.80;;
20653;SDS011;21083;50.898;4.902;2023-04-01T01:21:05;4.47;;;1.00;;
20653;SDS011;21083;50.898;4.902;2023-04-01T01:27:02;5.22;;;0.70;;
20653;SDS011;21083;50.898;4.902;2023-04-01T01:32:31;4.13;;;0.70;;
20653;SDS011;21083;50.898;4.902;2023-04-01T01:35:13;3.75;;;0.68;;
20653;SDS011;21083;50.898;4.902;2023-04-01T01:37:45;3.33;;;0.73;;
20653;SDS011;21083;50.898;4.902;2023-04-01T01:40:16;2.13;;;0.65;;
20653;SDS011;21083;50.898;4.902;2023-04-01T01:42:45;2.53;;;0.70;;
20653;SDS011;21083;50.898;4.902;2023-04-01T01:45:16;3.03;;;0.65;;
20653;SDS011;21083;50.898;4.902;2023-04-01T01:47:46;2.60;;;0.60;;
20653;SDS011;21083;50.898;4.902;2023-04-01T01:50:18;3.17;;;0.95;;
20653;SDS011;21083;50.898;4.902;2023-04-01T01:52:46;4.53;;;0.70;;
20653;SDS011;21083;50.898;4.902;2023-04-01T01:55:26;1.52;;;0.60;;
20653;SDS011;21083;50.898;4.902;2023-04-01T01:57:56;4.00;;;0.85;;
20653;SDS011;21083;50.898;4.902;2023-04-01T02:00:25;2.13;;;0.70;;
20653;SDS011;21083;50.898;4.902;2023-04-01T02:02:53;5.45;;;0.82;;
20653;SDS011;21083;50.898;4.902;2023-04-01T02:05:24;2.42;;;0.50;;
20653;SDS011;21083;50.898;4.902;2023-04-01T02:07:55;5.10;;;1.10;;
20653;SDS011;21083;50.898;4.902;2023-04-01T02:10:28;3.33;;;0.88;;
20653;SDS011;21083;50.898;4.902;2023-04-01T02:13:00;1.67;;;0.60;;
20653;SDS011;21083;50.898;4.902;2023-04-01T02:15:32;3.10;;;0.65;;
20653;SDS011;21083;50.898;4.902;2023-04-01T02:18:07;1.98;;;0.68;;
20653;SDS011;21083;50.898;4.902;2023-04-01T02:20:37;1.13;;;0.60;;
20653;SDS011;21083;50.898;4.902;2023-04-01T02:23:06;2.92;;;0.80;;
20653;SDS011;21083;50.898;4.902;2023-04-01T02:25:36;6.00;;;1.00;;
20653;SDS011;21083;50.898;4.902;2023-04-01T02:28:06;3.47;;;0.80;;
20653;SDS011;21083;50.898;4.902;2023-04-01T02:30:35;2.35;;;0.80;;
20653;SDS011;21083;50.898;4.902;2023-04-01T02:33:05;5.05;;;1.20;;
20653;SDS011;21083;50.898;4.902;2023-04-01T02:35:34;4.82;;;1.50;;
20653;SDS011;21083;50.898;4.902;2023-04-01T02:38:04;5.53;;;1.50;;
20653;SDS011;21083;50.898;4.902;2023-04-01T02:40:40;7.75;;;1.80;;
20653;SDS011;21083;50.898;4.902;2023-04-01T02:43:10;5.35;;;1.60;;
20653;SDS011;21083;50.898;4.902;2023-04-01T02:45:38;6.30;;;1.55;;
20653;SDS011;21083;50.898;4.902;2023-04-01T02:48:05;5.38;;;1.70;;
20653;SDS011;21083;50.898;4.902;2023-04-01T02:50:32;4.55;;;1.40;;
20653;SDS011;21083;50.898;4.902;2023-04-01T02:53:01;3.22;;;1.27;;
20653;SDS011;21083;50.898;4.902;2023-04-01T02:55:31;4.05;;;1.42;;
20653;SDS011;21083;50.898;4.902;2023-04-01T02:58:00;3.13;;;1.38;;
20653;SDS011;21083;50.898;4.902;2023-04-01T03:00:30;6.68;;;1.55;;
20653;SDS011;21083;50.898;4.902;2023-04-01T03:02:58;4.60;;;1.20;;
20653;SDS011;21083;50.898;4.902;2023-04-01T03:05:25;3.95;;;1.30;;
20653;SDS011;21083;50.898;4.902;2023-04-01T03:07:52;5.05;;;1.60;;
20653;SDS011;21083;50.898;4.902;2023-04-01T03:10:21;7.70;;;1.75;;
20653;SDS011;21083;50.898;4.902;2023-04-01T03:12:48;4.72;;;1.70;;
20653;SDS011;21083;50.898;4.902;2023-04-01T03:15:15;7.00;;;1.90;;
20653;SDS011;21083;50.898;4.902;2023-04-01T03:17:42;6.03;;;1.60;;
20653;SDS011;21083;50.898;4.902;2023-04-01T03:20:10;6.60;;;2.05;;
20653;SDS011;21083;50.898;4.902;2023-04-01T03:22:43;12.65;;;4.25;;
20653;SDS011;21083;50.898;4.902;2023-04-01T03:25:11;9.70;;;2.15;;
20653;SDS011;21083;50.898;4.902;2023-04-01T03:27:39;5.10;;;2.10;;
20653;SDS011;21083;50.898;4.902;2023-04-01T03:30:07;8.20;;;1.90;;
20653;SDS011;21083;50.898;4.902;2023-04-01T03:32:34;6.45;;;1.85;;
20653;SDS011;21083;50.898;4.902;2023-04-01T03:35:02;7.47;;;1.70;;
20653;SDS011;21083;50.898;4.902;2023-04-01T03:37:30;8.52;;;1.13;;
20653;SDS011;21083;50.898;4.902;2023-04-01T03:39:57;8.38;;;1.85;;
20653;SDS011;21083;50.898;4.902;2023-04-01T03:42:24;11.63;;;2.55;;
20653;SDS011;21083;50.898;4.902;2023-04-01T03:44:52;9.93;;;2.50;;
20653;SDS011;21083;50.898;4.902;2023-04-01T03:47:19;7.75;;;2.10;;
20653;SDS011;21083;50.898;4.902;2023-04-01T03:49:46;11.93;;;2.45;;
20653;SDS011;21083;50.898;4.902;2023-04-01T03:52:13;11.93;;;2.53;;
20653;SDS011;21083;50.898;4.902;2023-04-01T03:54:40;10.75;;;2.50;;
20653;SDS011;21083;50.898;4.902;2023-04-01T03:57:07;11.48;;;3.10;;
20653;SDS011;21083;50.898;4.902;2023-04-01T03:59:36;11.10;;;2.78;;
20653;SDS011;21083;50.898;4.902;2023-04-01T04:02:04;12.57;;;2.92;;
20653;SDS011;21083;50.898;4.902;2023-04-01T04:04:31;11.45;;;3.20;;
20653;SDS011;21083;50.898;4.902;2023-04-01T04:06:58;10.43;;;3.75;;
20653;SDS011;21083;50.898;4.902;2023-04-01T04:09:25;10.38;;;3.80;;
20653;SDS011;21083;50.898;4.902;2023-04-01T04:11:52;11.77;;;3.28;;
20653;SDS011;21083;50.898;4.902;2023-04-01T04:14:19;7.55;;;2.88;;
20653;SDS011;21083;50.898;4.902;2023-04-01T04:16:46;12.43;;;3.75;;
20653;SDS011;21083;50.898;4.902;2023-04-01T04:19:15;11.15;;;3.67;;
20653;SDS011;21083;50.898;4.902;2023-04-01T04:21:42;10.10;;;3.88;;
20653;SDS011;21083;50.898;4.902;2023-04-01T04:24:09;18.88;;;4.78;;
20653;SDS011;21083;50.898;4.902;2023-04-01T04:26:36;14.85;;;4.18;;
20653;SDS011;21083;50.898;4.902;2023-04-01T04:29:03;10.98;;;4.40;;
20653;SDS011;21083;50.898;4.902;2023-04-01T04:31:30;10.82;;;4.28;;
20653;SDS011;21083;50.898;4.902;2023-04-01T04:33:58;13.65;;;4.68;;
20653;SDS011;21083;50.898;4.902;2023-04-01T04:36:29;18.13;;;5.28;;
20653;SDS011;21083;50.898;4.902;2023-04-01T04:38:56;16.65;;;5.22;;
20653;SDS011;21083;50.898;4.902;2023-04-01T04:41:23;12.98;;;5.10;;
20653;SDS011;21083;50.898;4.902;2023-04-01T04:43:51;13.80;;;4.47;;
20653;SDS011;21083;50.898;4.902;2023-04-01T04:46:20;19.25;;;5.13;;
20653;SDS011;21083;50.898;4.902;2023-04-01T04:48:50;15.00;;;5.10;;
20653;SDS011;21083;50.898;4.902;2023-04-01T04:51:18;18.98;;;5.80;;
20653;SDS011;21083;50.898;4.902;2023-04-01T04:53:47;11.60;;;4.57;;
20653;SDS011;21083;50.898;4.902;2023-04-01T04:56:17;20.85;;;4.60;;
20653;SDS011;21083;50.898;4.902;2023-04-01T04:58:51;14.65;;;4.68;;
20653;SDS011;21083;50.898;4.902;2023-04-01T05:01:18;10.80;;;4.13;;
20653;SDS011;21083;50.898;4.902;2023-04-01T05:03:45;14.93;;;4.65;;
20653;SDS011;21083;50.898;4.902;2023-04-01T05:06:16;14.38;;;4.22;;
20653;SDS011;21083;50.898;4.902;2023-04-01T05:08:44;12.93;;;4.00;;
20653;SDS011;21083;50.898;4.902;2023-04-01T05:11:13;11.40;;;3.70;;
20653;SDS011;21083;50.898;4.902;2023-04-01T05:13:42;8.60;;;3.58;;
20653;SDS011;21083;50.898;4.902;2023-04-01T05:16:10;10.35;;;3.97;;
20653;SDS011;21083;50.898;4.902;2023-04-01T05:18:38;9.25;;;3.75;;
20653;SDS011;21083;50.898;4.902;2023-04-01T05:21:07;9.75;;;3.22;;
20653;SDS011;21083;50.898;4.902;2023-04-01T05:23:35;8.93;;;2.70;;
20653;SDS011;21083;50.898;4.902;2023-04-01T05:26:03;10.18;;;3.30;;
20653;SDS011;21083;50.898;4.902;2023-04-01T05:28:32;7.80;;;2.88;;
20653;SDS011;21083;50.898;4.902;2023-04-01T05:31:01;12.50;;;3.30;;
20653;SDS011;21083;50.898;4.902;2023-04-01T05:33:29;8.20;;;3.10;;
20653;SDS011;21083;50.898;4.902;2023-04-01T05:35:56;11.10;;;3.65;;
20653;SDS011;21083;50.898;4.902;2023-04-01T05:38:31;10.68;;;3.08;;
20653;SDS011;21083;50.898;4.902;2023-04-01T05:40:58;8.07;;;2.85;;
20653;SDS011;21083;50.898;4.902;2023-04-01T05:43:25;7.28;;;2.90;;
20653;SDS011;21083;50.898;4.902;2023-04-01T05:45:55;6.22;;;2.50;;
20653;SDS011;21083;50.898;4.902;2023-04-01T05:48:22;5.60;;;2.28;;
20653;SDS011;21083;50.898;4.902;2023-04-01T05:50:49;6.97;;;2.42;;
20653;SDS011;21083;50.898;4.902;2023-04-01T05:53:16;6.05;;;2.13;;
20653;SDS011;21083;50.898;4.902;2023-04-01T05:55:44;6.00;;;2.25;;
20653;SDS011;21083;50.898;4.902;2023-04-01T05:58:11;5.75;;;2.47;;
20653;SDS011;21083;50.898;4.902;2023-04-01T06:00:38;5.63;;;2.08;;
20653;SDS011;21083;50.898;4.902;2023-04-01T06:03:06;5.60;;;2.17;;
20653;SDS011;21083;50.898;4.902;2023-04-01T06:05:36;7.40;;;1.90;;
20653;SDS011;21083;50.898;4.902;2023-04-01T06:08:09;6.57;;;1.80;;
20653;SDS011;21083;50.898;4.902;2023-04-01T06:10:39;4.47;;;1.55;;
20653;SDS011;21083;50.898;4.902;2023-04-01T06:13:31;3.25;;;1.80;;
20653;SDS011;21083;50.898;4.902;2023-04-01T06:16:11;5.22;;;1.60;;
20653;SDS011;21083;50.898;4.902;2023-04-01T06:18:57;5.10;;;2.00;;
20653;SDS011;21083;50.898;4.902;2023-04-01T06:21:55;4.18;;;1.77;;
20653;SDS011;21083;50.898;4.902;2023-04-01T06:24:55;4.43;;;1.83;;
20653;SDS011;21083;50.898;4.902;2023-04-01T06:27:42;8.32;;;2.38;;
20653;SDS011;21083;50.898;4.902;2023-04-01T06:30:25;8.35;;;2.35;;
20653;SDS011;21083;50.898;4.902;2023-04-01T06:33:08;7.43;;;2.90;;
20653;SDS011;21083;50.898;4.902;2023-04-01T06:38:57;7.43;;;2.90;;
20653;SDS011;21083;50.898;4.902;2023-04-01T06:41:51;7.07;;;2.85;;
20653;SDS011;21083;50.898;4.902;2023-04-01T06:44:40;8.18;;;2.95;;
20653;SDS011;21083;50.898;4.902;2023-04-01T06:47:20;7.38;;;3.35;;
20653;SDS011;21083;50.898;4.902;2023-04-01T06:49:56;8.68;;;3.05;;
20653;SDS011;21083;50.898;4.902;2023-04-01T06:52:35;12.27;;;3.45;;
20653;SDS011;21083;50.898;4.902;2023-04-01T06:55:18;8.05;;;3.05;;
20653;SDS011;21083;50.898;4.902;2023-04-01T06:57:52;8.95;;;3.20;;
20653;SDS011;21083;50.898;4.902;2023-04-01T07:00:24;10.40;;;3.40;;
20653;SDS011;21083;50.898;4.902;2023-04-01T07:02:58;10.52;;;3.10;;
20653;SDS011;21083;50.898;4.902;2023-04-01T07:05:31;9.15;;;3.20;;
20653;SDS011;21083;50.898;4.902;2023-04-01T07:08:01;7.35;;;2.55;;
20653;SDS011;21083;50.898;4.902;2023-04-01T07:10:33;5.78;;;2.30;;
20653;SDS011;21083;50.898;4.902;2023-04-01T07:13:10;4.85;;;2.03;;
20653;SDS011;21083;50.898;4.902;2023-04-01T07:15:42;6.13;;;2.30;;
20653;SDS011;21083;50.898;4.902;2023-04-01T07:18:15;5.30;;;1.90;;
20653;SDS011;21083;50.898;4.902;2023-04-01T07:20:45;4.32;;;1.70;;
20653;SDS011;21083;50.898;4.902;2023-04-01T07:23:16;5.22;;;1.52;;
20653;SDS011;21083;50.898;4.902;2023-04-01T07:25:51;3.35;;;1.27;;
20653;SDS011;21083;50.898;4.902;2023-04-01T07:28:21;2.92;;;1.02;;
20653;SDS011;21083;50.898;4.902;2023-04-01T07:30:51;2.25;;;1.08;;
20653;SDS011;21083;50.898;4.902;2023-04-01T07:33:29;4.78;;;1.65;;
20653;SDS011;21083;50.898;4.902;2023-04-01T07:36:06;3.33;;;1.58;;
20653;SDS011;21083;50.898;4.902;2023-04-01T07:38:43;2.90;;;1.17;;
20653;SDS011;21083;50.898;4.902;2023-04-01T07:41:23;2.22;;;1.00;;
20653;SDS011;21083;50.898;4.902;2023-04-01T07:44:00;3.50;;;1.00;;
20653;SDS011;21083;50.898;4.902;2023-04-01T07:46:39;3.60;;;1.20;;
20653;SDS011;21083;50.898;4.902;2023-04-01T07:49:21;3.53;;;1.00;;
20653;SDS011;21083;50.898;4.902;2023-04-01T07:51:54;1.30;;;0.60;;
20653;SDS011;21083;50.898;4.902;2023-04-01T07:54:28;3.83;;;0.90;;
20653;SDS011;21083;50.898;4.902;2023-04-01T07:57:01;3.90;;;1.27;;
20653;SDS011;21083;50.898;4.902;2023-04-01T07:59:35;3.28;;;1.33;;
20653;SDS011;21083;50.898;4.902;2023-04-01T08:02:14;6.68;;;1.65;;
20653;SDS011;21083;50.898;4.902;2023-04-01T08:04:53;4.95;;;1.20;;
20653;SDS011;21083;50.898;4.902;2023-04-01T08:07:28;4.00;;;1.45;;
20653;SDS011;21083;50.898;4.902;2023-04-01T08:10:05;2.90;;;1.30;;
20653;SDS011;21083;50.898;4.902;2023-04-01T08:12:40;2.03;;;0.90;;
20653;SDS011;21083;50.898;4.902;2023-04-01T08:15:15;5.90;;;1.02;;
20653;SDS011;21083;50.898;4.902;2023-04-01T08:17:52;2.17;;;1.17;;
20653;SDS011;21083;50.898;4.902;2023-04-01T08:20:28;2.08;;;1.20;;
20653;SDS011;21083;50.898;4.902;2023-04-01T08:23:04;2.97;;;1.23;;
20653;SDS011;21083;50.898;4.902;2023-04-01T08:25:42;5.55;;;1.38;;
20653;SDS011;21083;50.898;4.902;2023-04-01T08:28:16;2.92;;;1.23;;
20653;SDS011;21083;50.898;4.902;2023-04-01T08:30:49;5.43;;;1.70;;
20653;SDS011;21083;50.898;4.902;2023-04-01T08:33:21;6.05;;;1.63;;
20653;SDS011;21083;50.898;4.902;2023-04-01T08:35:52;6.45;;;1.80;;
20653;SDS011;21083;50.898;4.902;2023-04-01T08:38:23;5.13;;;1.92;;
20653;SDS011;21083;50.898;4.902;2023-04-01T08:40:57;8.48;;;2.42;;
20653;SDS011;21083;50.898;4.902;2023-04-01T08:43:41;5.68;;;1.90;;
20653;SDS011;21083;50.898;4.902;2023-04-01T08:46:28;3.75;;;1.77;;
20653;SDS011;21083;50.898;4.902;2023-04-01T08:49:18;6.22;;;2.10;;
20653;SDS011;21083;50.898;4.902;2023-04-01T08:52:15;4.78;;;1.98;;
20653;SDS011;21083;50.898;4.902;2023-04-01T08:55:04;3.88;;;1.48;;
20653;SDS011;21083;50.898;4.902;2023-04-01T08:57:59;2.60;;;1.20;;
20653;SDS011;21083;50.898;4.902;2023-04-01T09:00:49;3.70;;;1.42;;
20653;SDS011;21083;50.898;4.902;2023-04-01T09:09:19;3.35;;;0.93;;
20653;SDS011;21083;50.898;4.902;2023-04-01T09:18:15;3.88;;;1.80;;
20653;SDS011;21083;50.898;4.902;2023-04-01T09:21:20;4.60;;;1.90;;
20653;SDS011;21083;50.898;4.902;2023-04-01T09:24:06;4.78;;;1.98;;
20653;SDS011;21083;50.898;4.902;2023-04-01T09:27:00;4.72;;;1.52;;
20653;SDS011;21083;50.898;4.902;2023-04-01T09:29:37;3.25;;;1.33;;
20653;SDS011;21083;50.898;4.902;2023-04-01T09:32:28;4.93;;;1.52;;
20653;SDS011;21083;50.898;4.902;2023-04-01T09:35:15;4.13;;;1.55;;
20653;SDS011;21083;50.898;4.902;2023-04-01T09:37:52;4.45;;;1.73;;
20653;SDS011;21083;50.898;4.902;2023-04-01T09:40:31;3.45;;;1.67;;
20653;SDS011;21083;50.898;4.902;2023-04-01T09:43:21;2.50;;;1.48;;
20653;SDS011;21083;50.898;4.902;2023-04-01T09:45:55;5.30;;;1.88;;
20653;SDS011;21083;50.898;4.902;2023-04-01T09:51:52;3.22;;;1.63;;
20653;SDS011;21083;50.898;4.902;2023-04-01T09:54:29;6.80;;;2.20;;
20653;SDS011;21083;50.898;4.902;2023-04-01T10:00:32;4.38;;;1.90;;
20653;SDS011;21083;50.898;4.902;2023-04-01T10:15:42;3.22;;;1.38;;
20653;SDS011;21083;50.898;4.902;2023-04-01T10:21:42;3.08;;;1.50;;
20653;SDS011;21083;50.898;4.902;2023-04-01T10:27:47;4.82;;;1.85;;
20653;SDS011;21083;50.898;4.902;2023-04-01T10:30:48;4.88;;;1.90;;
20653;SDS011;21083;50.898;4.902;2023-04-01T10:33:52;3.85;;;1.65;;
20653;SDS011;21083;50.898;4.902;2023-04-01T10:39:37;6.38;;;2.05;;
20653;SDS011;21083;50.898;4.902;2023-04-01T10:45:42;9.35;;;3.30;;
20653;SDS011;21083;50.898;4.902;2023-04-01T10:48:39;7.18;;;3.05;;
20653;SDS011;21083;50.898;4.902;2023-04-01T10:51:45;10.88;;;3.78;;
20653;SDS011;21083;50.898;4.902;2023-04-01T10:54:42;8.80;;;3.15;;
20653;SDS011;21083;50.898;4.902;2023-04-01T10:57:20;5.75;;;2.67;;
20653;SDS011;21083;50.898;4.902;2023-04-01T11:00:07;7.65;;;3.40;;
20653;SDS011;21083;50.898;4.902;2023-04-01T11:15:15;4.75;;;1.55;;
20653;SDS011;21083;50.898;4.902;2023-04-01T11:18:11;3.58;;;1.23;;
20653;SDS011;21083;50.898;4.902;2023-04-01T11:21:12;4.68;;;1.77;;
20653;SDS011;21083;50.898;4.902;2023-04-01T11:26:50;3.60;;;1.20;;
20653;SDS011;21083;50.898;4.902;2023-04-01T11:29:47;2.40;;;1.20;;
20653;SDS011;21083;50.898;4.902;2023-04-01T11:32:34;3.95;;;1.17;;
20653;SDS011;21083;50.898;4.902;2023-04-01T11:38:35;7.78;;;1.90;;
20653;SDS011;21083;50.898;4.902;2023-04-01T11:41:30;5.28;;;1.45;;
20653;SDS011;21083;50.898;4.902;2023-04-01T11:44:16;3.08;;;1.20;;
20653;SDS011;21083;50.898;4.902;2023-04-01T11:46:49;2.97;;;1.40;;
20653;SDS011;21083;50.898;4.902;2023-04-01T11:52:26;3.42;;;1.20;;
20653;SDS011;21083;50.898;4.902;2023-04-01T11:55:13;1.60;;;1.05;;
20653;SDS011;21083;50.898;4.902;2023-04-01T11:57:56;3.72;;;1.13;;
20653;SDS011;21083;50.898;4.902;2023-04-01T12:00:41;2.45;;;1.23;;
20653;SDS011;21083;50.898;4.902;2023-04-01T12:03:49;2.95;;;1.23;;
20653;SDS011;21083;50.898;4.902;2023-04-01T12:06:28;3.50;;;1.20;;
20653;SDS011;21083;50.898;4.902;2023-04-01T12:09:01;4.68;;;1.38;;
20653;SDS011;21083;50.898;4.902;2023-04-01T12:11:38;2.45;;;1.30;;
20653;SDS011;21083;50.898;4.902;2023-04-01T12:14:14;3.33;;;1.67;;
20653;SDS011;21083;50.898;4.902;2023-04-01T12:16:47;4.72;;;1.50;;
20653;SDS011;21083;50.898;4.902;2023-04-01T12:19:26;2.97;;;1.40;;
20653;SDS011;21083;50.898;4.902;2023-04-01T12:22:12;4.13;;;1.55;;
20653;SDS011;21083;50.898;4.902;2023-04-01T12:24:51;3.55;;;1.25;;
20653;SDS011;21083;50.898;4.902;2023-04-01T12:27:29;4.15;;;1.27;;
20653;SDS011;21083;50.898;4.902;2023-04-01T12:30:12;3.63;;;1.30;;
20653;SDS011;21083;50.898;4.902;2023-04-01T12:32:55;2.40;;;1.20;;
20653;SDS011;21083;50.898;4.902;2023-04-01T12:35:34;4.32;;;0.98;;
20653;SDS011;21083;50.898;4.902;2023-04-01T12:38:14;2.15;;;0.80;;
20653;SDS011;21083;50.898;4.902;2023-04-01T12:41:01;3.15;;;0.95;;
20653;SDS011;21083;50.898;4.902;2023-04-01T12:43:41;1.15;;;0.70;;
20653;SDS011;21083;50.898;4.902;2023-04-01T12:46:32;3.67;;;0.90;;
20653;SDS011;21083;50.898;4.902;2023-04-01T12:49:20;1.92;;;0.90;;
20653;SDS011;21083;50.898;4.902;2023-04-01T12:52:06;1.55;;;0.70;;
20653;SDS011;21083;50.898;4.902;2023-04-01T12:54:42;3.33;;;0.90;;
20653;SDS011;21083;50.898;4.902;2023-04-01T12:57:26;1.95;;;0.80;;
20653;SDS011;21083;50.898;4.902;2023-04-01T13:00:13;0.68;;;0.60;;
20653;SDS011;21083;50.898;4.902;2023-04-01T13:02:57;1.50;;;0.57;;
20653;SDS011;21083;50.898;4.902;2023-04-01T13:08:45;1.83;;;0.80;;
20653;SDS011;21083;50.898;4.902;2023-04-01T13:11:22;2.38;;;0.88;;
20653;SDS011;21083;50.898;4.902;2023-04-01T13:14:06;2.65;;;1.10;;
20653;SDS011;21083;50.898;4.902;2023-04-01T13:16:51;2.92;;;1.08;;
20653;SDS011;21083;50.898;4.902;2023-04-01T13:19:24;3.67;;;1.15;;
20653;SDS011;21083;50.898;4.902;2023-04-01T13:21:59;1.98;;;0.80;;
20653;SDS011;21083;50.898;4.902;2023-04-01T13:24:35;4.28;;;1.00;;
20653;SDS011;21083;50.898;4.902;2023-04-01T13:27:09;2.08;;;0.80;;
20653;SDS011;21083;50.898;4.902;2023-04-01T13:29:43;2.45;;;0.80;;
20653;SDS011;21083;50.898;4.902;2023-04-01T13:32:19;3.85;;;1.20;;
20653;SDS011;21083;50.898;4.902;2023-04-01T13:34:59;2.90;;;1.10;;
20653;SDS011;21083;50.898;4.902;2023-04-01T13:37:43;2.45;;;0.80;;
20653;SDS011;21083;50.898;4.902;2023-04-01T13:40:32;2.63;;;1.10;;
20653;SDS011;21083;50.898;4.902;2023-04-01T13:43:05;1.90;;;1.00;;
20653;SDS011;21083;50.898;4.902;2023-04-01T13:45:41;2.55;;;1.00;;
20653;SDS011;21083;50.898;4.902;2023-04-01T13:51:21;1.95;;;1.00;;
20653;SDS011;21083;50.898;4.902;2023-04-01T13:54:07;2.42;;;0.90;;
20653;SDS011;21083;50.898;4.902;2023-04-01T13:56:50;2.47;;;1.13;;
20653;SDS011;21083;50.898;4.902;2023-04-01T13:59:38;2.00;;;1.20;;
20653;SDS011;21083;50.898;4.902;2023-04-01T14:02:28;3.35;;;1.30;;
20653;SDS011;21083;50.898;4.902;2023-04-01T14:05:28;2.70;;;0.90;;
20653;SDS011;21083;50.898;4.902;2023-04-01T14:08:10;1.92;;;0.80;;
20653;SDS011;21083;50.898;4.902;2023-04-01T14:10:46;1.85;;;0.75;;
20653;SDS011;21083;50.898;4.902;2023-04-01T14:13:23;1.70;;;0.77;;
20653;SDS011;21083;50.898;4.902;2023-04-01T14:16:00;2.30;;;0.98;;
20653;SDS011;21083;50.898;4.902;2023-04-01T14:18:47;1.60;;;0.80;;
20653;SDS011;21083;50.898;4.902;2023-04-01T14:21:33;3.45;;;0.80;;
20653;SDS011;21083;50.898;4.902;2023-04-01T14:24:08;1.73;;;0.82;;
20653;SDS011;21083;50.898;4.902;2023-04-01T14:32:48;2.00;;;0.90;;
20653;SDS011;21083;50.898;4.902;2023-04-01T14:35:32;4.80;;;1.02;;
20653;SDS011;21083;50.898;4.902;2023-04-01T14:38:11;2.80;;;1.27;;
20653;SDS011;21083;50.898;4.902;2023-04-01T14:40:55;3.45;;;1.40;;
20653;SDS011;21083;50.898;4.902;2023-04-01T14:43:36;7.25;;;2.28;;
20653;SDS011;21083;50.898;4.902;2023-04-01T14:46:35;5.20;;;2.10;;
20653;SDS011;21083;50.898;4.902;2023-04-01T14:49:32;5.43;;;2.10;;
20653;SDS011;21083;50.898;4.902;2023-04-01T14:52:05;6.22;;;2.70;;
20653;SDS011;21083;50.898;4.902;2023-04-01T14:54:40;6.28;;;3.20;;
20653;SDS011;21083;50.898;4.902;2023-04-01T14:57:10;7.68;;;3.47;;
20653;SDS011;21083;50.898;4.902;2023-04-01T14:59:40;6.72;;;3.22;;
20653;SDS011;21083;50.898;4.902;2023-04-01T15:02:17;7.57;;;3.20;;
20653;SDS011;21083;50.898;4.902;2023-04-01T15:05:05;9.38;;;3.90;;
20653;SDS011;21083;50.898;4.902;2023-04-01T15:07:46;12.45;;;4.70;;
20653;SDS011;21083;50.898;4.902;2023-04-01T15:10:40;8.85;;;4.00;;
20653;SDS011;21083;50.898;4.902;2023-04-01T15:16:24;9.48;;;4.32;;
20653;SDS011;21083;50.898;4.902;2023-04-01T15:19:02;10.25;;;4.10;;
20653;SDS011;21083;50.898;4.902;2023-04-01T15:21:42;8.68;;;4.28;;
20653;SDS011;21083;50.898;4.902;2023-04-01T15:24:19;9.45;;;4.35;;
20653;SDS011;21083;50.898;4.902;2023-04-01T15:32:46;6.22;;;3.15;;
20653;SDS011;21083;50.898;4.902;2023-04-01T15:35:27;9.43;;;3.40;;
20653;SDS011;21083;50.898;4.902;2023-04-01T15:38:05;6.40;;;3.13;;
20653;SDS011;21083;50.898;4.902;2023-04-01T15:40:38;7.70;;;3.40;;
20653;SDS011;21083;50.898;4.902;2023-04-01T15:43:15;10.65;;;3.75;;
20653;SDS011;21083;50.898;4.902;2023-04-01T15:45:58;7.85;;;3.92;;
20653;SDS011;21083;50.898;4.902;2023-04-01T15:51:42;7.05;;;3.28;;
20653;SDS011;21083;50.898;4.902;2023-04-01T15:54:31;9.05;;;4.20;;
20653;SDS011;21083;50.898;4.902;2023-04-01T15:57:15;7.88;;;3.92;;
20653;SDS011;21083;50.898;4.902;2023-04-01T15:59:54;8.05;;;3.90;;
20653;SDS011;21083;50.898;4.902;2023-04-01T16:02:47;8.50;;;3.47;;
20653;SDS011;21083;50.898;4.902;2023-04-01T16:05:25;6.85;;;3.15;;
20653;SDS011;21083;50.898;4.902;2023-04-01T16:08:13;5.15;;;2.20;;
20653;SDS011;21083;50.898;4.902;2023-04-01T16:11:14;4.25;;;1.80;;
20653;SDS011;21083;50.898;4.902;2023-04-01T16:13:51;4.40;;;2.20;;
20653;SDS011;21083;50.898;4.902;2023-04-01T16:16:31;4.70;;;2.20;;
20653;SDS011;21083;50.898;4.902;2023-04-01T16:19:24;4.88;;;2.22;;
20653;SDS011;21083;50.898;4.902;2023-04-01T16:22:11;3.83;;;1.60;;
20653;SDS011;21083;50.898;4.902;2023-04-01T16:24:43;4.38;;;1.80;;
20653;SDS011;21083;50.898;4.902;2023-04-01T16:27:14;5.03;;;2.08;;
20653;SDS011;21083;50.898;4.902;2023-04-01T16:29:51;4.43;;;1.90;;
20653;SDS011;21083;50.898;4.902;2023-04-01T16:32:35;4.55;;;1.73;;
20653;SDS011;21083;50.898;4.902;2023-04-01T16:35:15;6.82;;;2.55;;
20653;SDS011;21083;50.898;4.902;2023-04-01T16:37:53;5.30;;;2.40;;
20653;SDS011;21083;50.898;4.902;2023-04-01T16:40:32;6.22;;;2.38;;
20653;SDS011;21083;50.898;4.902;2023-04-01T16:43:11;5.18;;;2.03;;
20653;SDS011;21083;50.898;4.902;2023-04-01T16:45:53;5.45;;;1.90;;
20653;SDS011;21083;50.898;4.902;2023-04-01T16:48:36;4.18;;;2.05;;
20653;SDS011;21083;50.898;4.902;2023-04-01T16:51:19;3.53;;;1.65;;
20653;SDS011;21083;50.898;4.902;2023-04-01T16:53:49;4.25;;;1.80;;
20653;SDS011;21083;50.898;4.902;2023-04-01T16:56:22;3.35;;;1.67;;
20653;SDS011;21083;50.898;4.902;2023-04-01T16:58:55;6.22;;;2.25;;
20653;SDS011;21083;50.898;4.902;2023-04-01T17:01:29;5.65;;;2.40;;
20653;SDS011;21083;50.898;4.902;2023-04-01T17:04:04;6.57;;;2.25;;
20653;SDS011;21083;50.898;4.902;2023-04-01T17:06:39;6.97;;;2.60;;
20653;SDS011;21083;50.898;4.902;2023-04-01T17:09:18;7.53;;;2.95;;
20653;SDS011;21083;50.898;4.902;2023-04-01T17:11:55;7.65;;;3.05;;
20653;SDS011;21083;50.898;4.902;2023-04-01T17:14:28;8.90;;;3.00;;
20653;SDS011;21083;50.898;4.902;2023-04-01T17:17:10;11.73;;;3.83;;
20653;SDS011;21083;50.898;4.902;2023-04-01T17:19:55;7.70;;;3.10;;